ADDS METAR Data INFO
IDs: Format: Raw Decoded Include TAF

Data at: 0541 UTC 11 Dec 2017

KHCD 110535Z AUTO 00000KT 5SM -SN SCT029 SCT036 OVC060 M01/M03 A2991 RMK AO2 T10111026
KHCD 110515Z AUTO 16003KT 7SM -SN SCT029 BKN046 OVC060 M01/M03 A2993 RMK AO2 T10131030
KHCD 110455Z AUTO 16003KT 10SM SCT038 OVC050 M01/M03 A2994 RMK AO2 T10151031
KHCD 110435Z AUTO 00000KT 10SM SCT041 BKN047 OVC060 M02/M03 A2995 RMK AO2 T10201032
KHCD 110415Z AUTO 00000KT 10SM SCT047 BKN060 OVC070 M02/M03 A2998 RMK AO2 T10221035
KHCD 110355Z AUTO 00000KT 10SM SCT070 OVC080 M02/M04 A2998 RMK AO2 T10251036
KHCD 110335Z AUTO 00000KT 10SM OVC080 M03/M04 A2999 RMK AO2 T10271040
KHCD 110315Z AUTO 00000KT 10SM OVC080 M03/M04 A2998 RMK AO2 T10301042
KHCD 110255Z AUTO 00000KT 10SM OVC090 M03/M05 A2998 RMK AO2 T10341046
KHCD 110235Z AUTO 00000KT 10SM OVC090 M04/M05 A3000 RMK AO2 T10381051
KHCD 110215Z AUTO 00000KT 10SM OVC090 M04/M05 A3000 RMK AO2 T10361050
KHCD 110155Z AUTO 00000KT 10SM BKN090 M04/M05 A3002 RMK AO2 T10441055
KHCD 110135Z AUTO 12003KT 10SM CLR M04/M05 A3003 RMK AO2 T10391054
KHCD 110115Z AUTO 00000KT 10SM SCT095 M03/M04 A3003 RMK AO2 T10291045
KHCD 110055Z AUTO 00000KT 10SM SCT095 M03/M04 A3004 RMK AO2 T10281043
KHCD 110035Z AUTO 00000KT 10SM BKN095 M02/M04 A3004 RMK AO2 T10201042
KHCD 110015Z AUTO 00000KT 10SM OVC095 M02/M04 A3005 RMK AO2 T10181037
KHCD 102355Z AUTO 00000KT 10SM BKN095 M01/M04 A3006 RMK AO2 T10151045 10005 21016
KHCD 102335Z AUTO 00000KT 10SM SCT095 SCT110 M01/M04 A3005 RMK AO2 T10101045
KHCD 102315Z AUTO 00000KT 10SM BKN095 OVC110 M01/M04 A3004 RMK AO2 T10101043
KHCD 102255Z AUTO 32003KT 10SM OVC110 M01/M04 A3005 RMK AO2 T10081044
KHCD 102235Z AUTO 00000KT 10SM SCT100 OVC110 00/M04 A3004 RMK AO2 T10051041
KHCD 102215Z AUTO 32004KT 10SM SCT100 OVC120 00/M04 A3004 RMK AO2 T10021044
KHCD 102155Z AUTO 31004KT 10SM BKN120 00/M04 A3004 RMK AO2 T10021045
KHCD 102136Z AUTO 30005KT 10SM SCT110 00/M04 A3004 RMK AO2 T10021045
KHCD 102115Z AUTO 32006KT 10SM SCT110 00/M04 A3003 RMK AO2 T00021045
KHCD 102055Z AUTO 31005KT 10SM SCT090 BKN110 00/M05 A3002 RMK AO2 T00001046
KHCD 102035Z AUTO 29006KT 10SM SCT100 OVC120 00/M04 A3002 RMK AO2 T00001040
KHCD 102015Z AUTO 31006KT 10SM SCT100 BKN120 00/M04 A3002 RMK AO2 T10011041
KHCD 101955Z AUTO 31008KT 10SM SCT120 00/M04 A3002 RMK AO2 T00001044
KHCD 101935Z AUTO 31008KT 10SM SCT120 00/M04 A3003 RMK AO2 T10011044
KHCD 101915Z AUTO 31007KT 10SM SCT017 SCT100 BKN120 00/M04 A3002 RMK AO2 T10051044
KHCD 101855Z AUTO 31009KT 10SM SCT015 SCT110 00/M04 A3002 RMK AO2 T10031043
KHCD 101835Z AUTO 30008KT 10SM SCT015 SCT120 M01/M05 A3003 RMK AO2 T10111046
KHCD 101815Z AUTO 28010KT 10SM BKN015 M01/M05 A3003 RMK AO2 T10101047
KHCD 101755Z AUTO 29009KT 10SM OVC015 M01/M05 A3003 RMK AO2 T10151048 11015 21035
KHCD 101735Z AUTO 31009KT 10SM BKN015 M02/M05 A3002 RMK AO2 T10161049
KHCD 101715Z AUTO 29007KT 10SM BKN015 M02/M05 A3002 RMK AO2 T10181050
KHCD 101655Z AUTO 29009KT 10SM OVC015 M02/M05 A3001 RMK AO2 T10201050
KHCD 101635Z AUTO 32008KT 10SM BKN015 M02/M05 A3000 RMK AO2 T10211051
KHCD 101615Z AUTO 31011G17KT 10SM OVC015 M02/M05 A3000 RMK AO2 T10221050
KHCD 101555Z AUTO 32012KT 10SM OVC015 M02/M05 A3000 RMK AO2 T10231050
KHCD 101535Z AUTO 31010KT 10SM OVC015 M02/M05 A3000 RMK AO2 T10211048
KHCD 101515Z AUTO 31010KT 10SM OVC017 M02/M05 A2998 RMK AO2 T10211050
KHCD 101455Z AUTO 30008KT 10SM OVC019 M02/M05 A2997 RMK AO2 T10231048
KHCD 101435Z AUTO 28005KT 10SM OVC019 M03/M05 A2997 RMK AO2 T10301052
KHCD 101415Z AUTO 29009KT 10SM OVC019 M03/M05 A2997 RMK AO2 T10301055
KHCD 101355Z AUTO 29007KT 10SM BKN021 M03/M06 A2996 RMK AO2 T10351057
KHCD 101335Z AUTO 29008KT 10SM CLR M03/M06 A2995 RMK AO2 T10331056
KHCD 101315Z AUTO 29007KT 10SM CLR M03/M05 A2994 RMK AO2 T10311055
KHCD 101255Z AUTO 30006KT 10SM CLR M03/M05 A2994 RMK AO2 T10301054
KHCD 101235Z AUTO 31008KT 10SM CLR M03/M05 A2993 RMK AO2 T10261052
KHCD 101215Z AUTO 31009KT 10SM CLR M02/M05 A2993 RMK AO2 T10211050
KHCD 101155Z AUTO 30011KT 10SM CLR M02/M05 A2992 RMK AO2 T10181046 11018 21046
KHCD 101135Z AUTO 29009KT 10SM CLR M02/M05 A2991 RMK AO2 T10251048
KHCD 101115Z AUTO 29009KT 10SM CLR M03/M05 A2990 RMK AO2 T10261048
KHCD 101055Z AUTO 29008KT 10SM CLR M03/M05 A2988 RMK AO2 T10271050
KHCD 101035Z AUTO 28007KT 10SM CLR M03/M05 A2987 RMK AO2 T10301051
KHCD 101015Z AUTO 29009KT 10SM CLR M03/M05 A2986 RMK AO2 T10261050
KHCD 100955Z AUTO 28010KT 10SM CLR M03/M05 A2986 RMK AO2 T10271051
KHCD 100935Z AUTO 29010KT 10SM CLR M03/M05 A2985 RMK AO2 T10301053
KHCD 100915Z AUTO 29010KT 10SM CLR M03/M05 A2984 RMK AO2 T10321055
KHCD 100855Z AUTO 29010KT 10SM CLR M03/M05 A2984 RMK AO2 T10311055
KHCD 100835Z AUTO 29009KT 10SM CLR M03/M05 A2983 RMK AO2 T10301054
KHCD 100815Z AUTO 29009KT 10SM CLR M03/M05 A2983 RMK AO2 T10321055
KHCD 100755Z AUTO 28008KT 10SM CLR M04/M06 A2982 RMK AO2 T10371058
KHCD 100735Z AUTO 27008KT 10SM CLR M04/M06 A2981 RMK AO2 T10371059
KHCD 100715Z AUTO 26008KT 10SM CLR M04/M06 A2980 RMK AO2 T10411060
KHCD 100655Z AUTO 24008KT 10SM CLR M04/M06 A2980 RMK AO2 T10381058
KHCD 100635Z AUTO 23005KT 10SM CLR M04/M06 A2981 RMK AO2 T10441062
KHCD 100615Z AUTO 22005KT 10SM CLR M04/M06 A2981 RMK AO2 T10451061
KHCD 100555Z AUTO 21005KT 10SM CLR M04/M06 A2981 RMK AO2 T10441060 11036 21055 410331066
KHCD 100535Z AUTO 20005KT 10SM CLR M04/M06 A2982 RMK AO2 T10421061
KHCD 100515Z AUTO 21007KT 10SM CLR M04/M06 A2984 RMK AO2 T10411062
KHCD 100455Z AUTO 20008KT 10SM CLR M04/M06 A2985 RMK AO2 T10421064
KHCD 100435Z AUTO 20006KT 10SM CLR M04/M06 A2987 RMK AO2 T10391065
KHCD 100415Z AUTO 21009KT 10SM CLR M04/M06 A2986 RMK AO2 T10361062
KHCD 100355Z AUTO 20009G14KT 10SM SCT110 M04/M07 A2985 RMK AO2 T10401066
KHCD 100335Z AUTO 20009G15KT 10SM SCT100 BKN120 M04/M07 A2987 RMK AO2 T10431071
KHCD 100315Z AUTO 18007KT 10SM BKN090 OVC120 M04/M07 A2991 RMK AO2 T10451075
KHCD 100255Z AUTO 19009KT 10SM BKN100 OVC110 M05/M08 A2992 RMK AO2 T10481077
KHCD 100235Z AUTO 19007KT 10SM OVC100 M05/M08 A2994 RMK AO2 T10501081
KHCD 100215Z AUTO 18007KT 10SM OVC100 M05/M08 A2996 RMK AO2 T10511081
KHCD 100155Z AUTO 19004KT 10SM OVC100 M05/M08 A2997 RMK AO2 T10511083
KHCD 100135Z AUTO 20005KT 10SM OVC100 M05/M08 A2999 RMK AO2 T10521084
KHCD 100115Z AUTO 20006KT 10SM OVC110 M05/M08 A2999 RMK AO2 T10521083
KHCD 100055Z AUTO 19003KT 10SM OVC110 M05/M09 A3000 RMK AO2 T10551086
KHCD 100035Z AUTO 20004KT 10SM BKN110 M05/M09 A3000 RMK AO2 T10551088
KHCD 100015Z AUTO 21005KT 10SM OVC110 M05/M09 A3002 RMK AO2 T10531090
KHCD 092355Z AUTO 21006KT 10SM OVC110 M05/M09 A3002 RMK AO2 T10521090 11041 21057
KHCD 092335Z AUTO 23005KT 10SM SCT110 M05/M09 A3003 RMK AO2 T10531092
KHCD 092315Z AUTO 23006KT 10SM CLR M05/M09 A3004 RMK AO2 T10551092
KHCD 092255Z AUTO 25006KT 10SM SCT110 M05/M09 A3005 RMK AO2 T10531094 PNO
KHCD 092235Z AUTO 26006KT 10SM CLR M05/M10 A3005 RMK AO2 T10521096
KHCD 092215Z AUTO 26008KT 10SM CLR M05/M10 A3007 RMK AO2 T10501099
KHCD 092155Z AUTO 26009KT 10SM CLR M05/M09 A3007 RMK AO2 T10501095
KHCD 092135Z AUTO 26009KT 10SM CLR M04/M09 A3008 RMK AO2 T10421093
KHCD 092115Z AUTO 26008KT 10SM CLR M05/M09 A3009 RMK AO2 T10471095
KHCD 092055Z AUTO 25009KT 10SM CLR M04/M09 A3009 RMK AO2 T10451094
KHCD 092035Z AUTO 27009KT 10SM SCT023 M05/M10 A3009 RMK AO2 T10471096
KHCD 092015Z AUTO 27011G14KT 10SM BKN023 M05/M09 A3009 RMK AO2 T10461094
KHCD 091955Z AUTO 25008KT 10SM OVC023 M04/M09 A3009 RMK AO2 T10421089
KHCD 091935Z AUTO 26009KT 10SM SCT023 SCT100 M05/M10 A3009 RMK AO2 T10491097
KHCD 091915Z AUTO 29007KT 10SM SCT023 SCT100 M05/M10 A3010 RMK AO2 T10491103
KHCD 091855Z AUTO 31007KT 10SM BKN023 M05/M10 A3010 RMK AO2 T10531104
KHCD 091835Z AUTO 29005KT 10SM OVC023 M05/M10 A3011 RMK AO2 T10541104
KHCD 091815Z AUTO 28008KT 10SM OVC023 M05/M10 A3011 RMK AO2 T10531100
KHCD 091755Z AUTO 28007KT 10SM OVC021 M06/M10 A3012 RMK AO2 T10571103 11057 21066